Time;durP1;ratioP1;P1;durP2;ratioP2;P2;SDS_P1;SDS_P2;PMS_P1;PMS_P2;Temp;Humidity;BMP_temperature;BMP_pressure;BME280_temperature;BME280_humidity;BME280_pressure;Samples;Min_cycle;Max_cycle;Signal;HPM_P1;HPM_P2
2022/07/07 00:01:36;;;;;;;0.98;0.60;;;12.30;59.00;;;;;;5107194;28;20019;-51
2022/07/07 00:04:02;;;;;;;2.88;0.68;;;12.40;58.90;;;;;;5091556;28;20038;-54
2022/07/07 00:06:28;;;;;;;1.70;0.55;;;12.40;58.10;;;;;;5108183;28;20053;-51
2022/07/07 00:08:54;;;;;;;1.30;0.60;;;12.40;59.10;;;;;;5089593;28;20028;-52
2022/07/07 00:11:21;;;;;;;1.45;0.77;;;12.40;59.30;;;;;;5110219;28;20016;-50
2022/07/07 00:13:47;;;;;;;1.77;0.68;;;12.50;59.40;;;;;;5084678;28;20080;-55
2022/07/07 00:16:12;;;;;;;4.82;0.75;;;12.50;59.60;;;;;;5069172;28;20555;-53
2022/07/07 00:18:38;;;;;;;2.97;0.50;;;12.60;59.50;;;;;;5107005;28;20039;-55
2022/07/07 00:21:04;;;;;;;0.57;0.52;;;12.60;59.40;;;;;;5069539;28;20399;-51
2022/07/07 00:23:30;;;;;;;1.10;0.57;;;12.70;59.50;;;;;;5108555;28;20023;-55
2022/07/07 00:25:56;;;;;;;0.75;0.50;;;12.80;59.00;;;;;;5072363;28;20028;-55
2022/07/07 00:28:21;;;;;;;2.67;0.70;;;12.90;59.30;;;;;;5089844;28;20097;-55
2022/07/07 00:30:47;;;;;;;1.02;0.75;;;13.00;57.40;;;;;;5069216;28;20115;-53
2022/07/07 00:33:14;;;;;;;0.88;0.40;;;13.10;56.70;;;;;;5108422;28;20092;-51
2022/07/07 00:35:40;;;;;;;0.30;0.30;;;13.30;55.70;;;;;;5070770;28;20477;-52
2022/07/07 00:38:06;;;;;;;2.53;0.60;;;13.40;55.30;;;;;;5107985;28;20032;-51
2022/07/07 00:40:32;;;;;;;0.70;0.50;;;13.50;54.50;;;;;;5071752;28;20032;-55
2022/07/07 00:42:57;;;;;;;0.60;0.60;;;13.60;53.50;;;;;;5108229;28;20076;-57
2022/07/07 00:45:24;;;;;;;4.32;0.68;;;13.60;52.40;;;;;;5073262;28;20050;-56
2022/07/07 00:47:49;;;;;;;1.73;0.70;;;13.70;52.20;;;;;;5108142;28;20024;-55
2022/07/07 00:50:15;;;;;;;0.30;0.30;;;13.80;51.90;;;;;;5074236;28;20036;-54
2022/07/07 00:52:41;;;;;;;1.10;0.60;;;13.80;51.40;;;;;;5106901;28;20496;-54
2022/07/07 00:55:10;;;;;;;1.48;0.47;;;13.90;51.10;;;;;;5075644;28;20107;-56
2022/07/07 00:57:36;;;;;;;2.20;0.60;;;13.90;50.90;;;;;;5108862;28;20054;-56
2022/07/07 01:00:08;;;;;;;0.47;0.40;;;14.00;50.50;;;;;;5076083;28;20036;-55
2022/07/07 01:02:34;;;;;;;0.45;0.45;;;14.00;49.80;;;;;;5067464;28;20479;-54
2022/07/07 01:05:02;;;;;;;1.02;0.40;;;14.10;49.20;;;;;;5083295;28;20064;-55
2022/07/07 01:07:28;;;;;;;1.35;0.40;;;14.10;49.30;;;;;;5108575;28;20054;-55
2022/07/07 01:09:56;;;;;;;2.20;0.60;;;14.20;49.00;;;;;;5097922;28;20035;-55
2022/07/07 01:12:21;;;;;;;2.10;0.50;;;14.20;48.60;;;;;;5089191;28;20109;-50
2022/07/07 01:14:47;;;;;;;1.52;0.50;;;14.20;48.80;;;;;;5098674;28;20439;-48
2022/07/07 01:17:12;;;;;;;1.38;0.50;;;14.30;48.20;;;;;;5089241;28;22398;-48
2022/07/07 01:19:38;;;;;;;0.60;0.43;;;14.30;48.20;;;;;;5106273;28;20027;-50
2022/07/07 01:22:14;;;;;;;0.73;0.60;;;14.40;48.30;;;;;;5089234;28;20055;-49
2022/07/07 01:24:40;;;;;;;0.93;0.40;;;14.40;48.00;;;;;;5095147;28;20104;-49
2022/07/07 01:27:11;;;;;;;0.20;0.20;;;14.40;47.50;;;;;;5100805;28;20457;-52
2022/07/07 01:29:39;;;;;;;0.57;0.38;;;14.50;47.00;;;;;;5094740;28;20103;-50
2022/07/07 01:32:05;;;;;;;0.90;0.30;;;14.50;46.90;;;;;;5109086;28;20027;-48
2022/07/07 01:34:31;;;;;;;1.00;0.70;;;14.50;46.70;;;;;;5094330;28;20030;-49
2022/07/07 01:36:57;;;;;;;0.43;0.40;;;14.60;46.60;;;;;;5108880;28;20504;-51
2022/07/07 01:39:22;;;;;;;2.30;0.47;;;14.60;45.90;;;;;;5093300;28;20038;-48
2022/07/07 01:41:48;;;;;;;1.55;0.52;;;14.60;45.60;;;;;;5108822;28;20036;-51
2022/07/07 01:44:13;;;;;;;0.68;0.32;;;14.70;45.50;;;;;;5091958;28;20024;-51
2022/07/07 01:46:39;;;;;;;2.03;0.50;;;14.70;46.20;;;;;;5108851;28;20031;-51
2022/07/07 01:49:04;;;;;;;0.55;0.50;;;14.70;46.50;;;;;;5090586;28;20042;-50
2022/07/07 01:51:30;;;;;;;2.00;0.40;;;14.80;46.50;;;;;;5108923;28;20016;-50
2022/07/07 01:53:55;;;;;;;3.03;0.47;;;14.80;47.10;;;;;;5089449;28;20032;-51
2022/07/07 01:56:21;;;;;;;3.15;0.52;;;14.80;48.40;;;;;;5108736;28;20458;-50
2022/07/07 01:58:46;;;;;;;2.33;0.68;;;14.80;49.30;;;;;;5088014;28;20040;-48
2022/07/07 02:01:12;;;;;;;1.35;0.30;;;14.80;49.60;;;;;;5098321;28;20027;-52
2022/07/07 02:03:37;;;;;;;2.30;0.60;;;14.80;50.30;;;;;;5110617;28;20032;-50
2022/07/07 02:06:03;;;;;;;2.47;0.52;;;14.80;50.20;;;;;;5112420;28;20119;-50
2022/07/07 02:08:29;;;;;;;1.10;0.50;;;14.80;51.00;;;;;;5092568;28;20036;-54
2022/07/07 02:11:13;;;;;;;0.90;0.65;;;14.80;52.20;;;;;;5071713;28;20029;-49
2022/07/07 02:13:49;;;;;;;1.65;0.60;;;14.70;52.90;;;;;;5087074;28;20023;-52
2022/07/07 02:16:17;;;;;;;0.52;0.50;;;14.80;53.80;;;;;;5070904;28;20112;-50
2022/07/07 02:18:44;;;;;;;0.80;0.47;;;14.70;55.00;;;;;;5108972;28;20039;-49
2022/07/07 02:21:11;;;;;;;0.70;0.45;;;14.70;55.70;;;;;;5091954;28;20027;-54
2022/07/07 02:23:38;;;;;;;1.85;0.30;;;14.70;57.30;;;;;;5109677;28;20573;-48
2022/07/07 02:26:04;;;;;;;2.42;0.50;;;14.70;58.00;;;;;;5094988;27;20368;-53
2022/07/07 02:28:30;;;;;;;1.30;0.50;;;14.70;59.60;;;;;;5094821;28;20030;-52
2022/07/07 02:30:57;;;;;;;1.30;0.40;;;14.70;60.40;;;;;;5111393;28;20073;-51
2022/07/07 02:33:23;;;;;;;1.85;0.68;;;14.70;63.20;;;;;;5098459;28;20028;-51
2022/07/07 02:35:49;;;;;;;0.40;0.40;;;14.60;63.50;;;;;;5092128;28;20492;-52
2022/07/07 02:38:15;;;;;;;3.38;0.80;;;14.70;66.50;;;;;;5109120;28;20039;-51
2022/07/07 02:40:41;;;;;;;1.75;0.50;;;14.60;67.00;;;;;;5109826;28;20076;-53
2022/07/07 02:43:07;;;;;;;1.88;0.47;;;14.60;68.30;;;;;;5090518;28;20488;-51
2022/07/07 02:45:33;;;;;;;1.75;0.55;;;14.60;69.30;;;;;;5082698;28;20124;-49
2022/07/07 02:47:58;;;;;;;0.95;0.50;;;14.60;72.60;;;;;;5110375;28;20039;-55
2022/07/07 02:50:24;;;;;;;1.25;0.55;;;14.60;73.90;;;;;;5077988;28;20455;-53
2022/07/07 02:52:50;;;;;;;1.05;0.50;;;14.60;74.10;;;;;;5110251;28;20024;-52
2022/07/07 02:55:15;;;;;;;3.63;0.57;;;14.60;75.70;;;;;;5100584;28;20037;-51
2022/07/07 02:57:41;;;;;;;1.17;0.47;;;14.60;76.40;;;;;;5091580;28;20105;-48
2022/07/07 03:00:08;;;;;;;1.08;0.52;;;14.50;81.30;;;;;;5108823;28;20066;-52
2022/07/07 03:02:34;;;;;;;2.15;0.65;;;14.50;82.30;;;;;;5091472;28;20078;-50
2022/07/07 03:05:00;;;;;;;0.57;0.40;;;14.40;81.20;;;;;;5108597;28;20035;-52
2022/07/07 03:07:26;;;;;;;1.95;0.52;;;14.40;83.00;;;;;;5091379;28;20028;-50
2022/07/07 03:09:51;;;;;;;1.90;0.50;;;14.40;81.80;;;;;;5108413;28;20045;-48
2022/07/07 03:12:16;;;;;;;1.85;0.93;;;14.30;85.50;;;;;;5111205;28;20303;-48
2022/07/07 03:14:42;;;;;;;0.70;0.70;;;14.30;88.90;;;;;;5091466;28;20024;-55
2022/07/07 03:17:07;;;;;;;0.68;0.60;;;14.30;91.20;;;;;;5111063;28;20446;-49
2022/07/07 03:19:34;;;;;;;2.67;1.08;;;14.20;91.80;;;;;;5094235;28;20027;-51
2022/07/07 03:22:00;;;;;;;2.15;0.73;;;14.20;92.30;;;;;;5111097;28;20024;-49
2022/07/07 03:24:27;;;;;;;0.68;0.55;;;14.20;92.10;;;;;;5093169;28;20467;-49
2022/07/07 03:26:53;;;;;;;1.23;0.60;;;14.10;94.00;;;;;;5100945;28;20278;-52
2022/07/07 03:29:18;;;;;;;1.65;0.60;;;14.20;93.20;;;;;;5099375;28;20421;-51
2022/07/07 03:31:44;;;;;;;2.80;1.25;;;14.20;94.40;;;;;;5111030;28;20080;-50
2022/07/07 03:34:09;;;;;;;2.88;0.80;;;14.10;96.00;;;;;;5090703;28;20111;-48
2022/07/07 03:36:35;;;;;;;2.97;1.08;;;14.10;94.90;;;;;;5110760;28;20059;-49
2022/07/07 03:39:00;;;;;;;1.40;0.93;;;14.10;98.40;;;;;;5089235;28;20032;-52
2022/07/07 03:41:26;;;;;;;1.15;0.70;;;14.00;96.60;;;;;;5110776;28;20024;-51
2022/07/07 03:43:51;;;;;;;2.60;0.75;;;14.00;98.90;;;;;;5090872;28;20322;-53
2022/07/07 03:46:17;;;;;;;1.27;0.90;;;14.00;98.40;;;;;;5087241;28;20028;-51
2022/07/07 03:48:42;;;;;;;1.77;0.88;;;14.00;97.80;;;;;;5090973;28;20051;-53
2022/07/07 03:51:08;;;;;;;1.10;0.90;;;14.00;99.90;;;;;;5107978;28;20065;-52
2022/07/07 03:53:34;;;;;;;2.92;0.90;;;14.00;99.90;;;;;;5090830;28;20064;-51
2022/07/07 03:56:00;;;;;;;2.72;1.00;;;14.00;99.90;;;;;;5107946;28;20081;-50
2022/07/07 03:58:25;;;;;;;1.02;0.77;;;14.00;99.90;;;;;;5110676;28;20057;-55
2022/07/07 04:00:51;;;;;;;2.90;0.82;;;14.00;99.90;;;;;;5095048;28;20035;-52
2022/07/07 04:03:16;;;;;;;2.58;0.88;;;14.00;99.90;;;;;;5110762;28;20099;-52
2022/07/07 04:05:42;;;;;;;2.25;0.80;;;14.00;99.90;;;;;;5093702;28;20026;-54
2022/07/07 04:08:08;;;;;;;3.00;0.80;;;14.00;99.90;;;;;;5110502;28;20028;-51
2022/07/07 04:10:33;;;;;;;3.33;0.95;;;14.00;99.90;;;;;;5092439;28;20051;-52
2022/07/07 04:12:58;;;;;;;2.60;1.00;;;13.90;99.90;;;;;;5110343;28;20043;-50
2022/07/07 04:15:24;;;;;;;4.43;1.10;;;13.90;99.90;;;;;;5083145;28;20032;-48
2022/07/07 04:17:49;;;;;;;1.17;1.08;;;14.00;99.90;;;;;;5110085;28;20031;-54
2022/07/07 04:20:15;;;;;;;1.40;1.05;;;14.00;99.90;;;;;;5089627;28;20114;-55
2022/07/07 04:22:40;;;;;;;2.28;1.15;;;14.00;99.90;;;;;;5108838;28;20588;-53
2022/07/07 04:25:07;;;;;;;2.15;1.00;;;14.00;99.90;;;;;;5088134;28;20032;-53
2022/07/07 04:27:32;;;;;;;1.73;1.10;;;14.00;99.90;;;;;;5100346;28;20540;-49
2022/07/07 04:29:57;;;;;;;2.90;1.23;;;14.10;99.90;;;;;;5089916;28;20127;-54
2022/07/07 04:32:23;;;;;;;1.90;1.10;;;14.10;99.90;;;;;;5068868;28;20055;-52
2022/07/07 04:34:48;;;;;;;1.58;1.23;;;14.10;99.90;;;;;;5108805;28;20059;-50
2022/07/07 04:37:14;;;;;;;4.53;0.90;;;14.10;99.90;;;;;;5070117;28;20496;-54
2022/07/07 04:39:39;;;;;;;2.50;0.90;;;14.10;99.90;;;;;;5108556;28;20032;-54
2022/07/07 04:42:05;;;;;;;1.27;0.95;;;14.10;99.90;;;;;;5071659;28;20557;-54
2022/07/07 04:44:30;;;;;;;3.10;1.20;;;14.10;99.90;;;;;;5108346;28;20031;-54
2022/07/07 04:46:56;;;;;;;1.85;1.13;;;14.10;99.90;;;;;;5072777;28;20032;-55
2022/07/07 04:49:22;;;;;;;2.25;1.00;;;14.20;99.90;;;;;;5108411;28;20028;-55
2022/07/07 04:51:48;;;;;;;2.22;1.00;;;14.10;99.90;;;;;;5073958;28;20025;-53
2022/07/07 04:54:14;;;;;;;2.17;1.20;;;14.20;99.90;;;;;;5108359;28;20063;-54
2022/07/07 04:56:40;;;;;;;2.90;1.10;;;14.20;99.90;;;;;;5074826;28;20031;-55
2022/07/07 04:59:05;;;;;;;1.60;0.80;;;14.20;99.90;;;;;;5108302;28;20036;-54
2022/07/07 05:01:31;;;;;;;1.38;0.98;;;14.20;99.90;;;;;;5076207;28;20086;-56
2022/07/07 05:03:56;;;;;;;1.48;1.35;;;14.20;99.90;;;;;;5108107;28;20027;-50
2022/07/07 05:06:22;;;;;;;1.58;1.17;;;14.10;99.90;;;;;;5098205;28;20448;-59
2022/07/07 05:08:47;;;;;;;2.08;1.00;;;14.10;99.90;;;;;;5089574;28;20051;-45
2022/07/07 05:11:13;;;;;;;3.70;1.27;;;14.20;99.90;;;;;;5106681;28;20098;-51
2022/07/07 05:13:38;;;;;;;2.03;1.30;;;14.20;99.90;;;;;;5087459;28;20602;-49
2022/07/07 05:16:05;;;;;;;2.25;1.10;;;14.10;99.90;;;;;;5107383;28;20026;-51
2022/07/07 05:18:31;;;;;;;3.17;1.27;;;14.10;99.90;;;;;;5089253;28;20403;-50
2022/07/07 05:20:57;;;;;;;1.85;1.05;;;14.20;99.90;;;;;;5106584;28;20098;-50
2022/07/07 05:23:25;;;;;;;2.15;0.90;;;14.10;99.90;;;;;;5109216;28;20020;-50
2022/07/07 05:25:51;;;;;;;1.88;1.00;;;14.20;99.90;;;;;;5088114;28;20016;-51
2022/07/07 05:28:17;;;;;;;1.98;1.08;;;14.20;99.90;;;;;;5086238;28;20078;-52
2022/07/07 05:30:42;;;;;;;2.28;1.20;;;14.30;99.90;;;;;;5108444;28;20047;-50
2022/07/07 05:33:08;;;;;;;3.70;1.23;;;14.20;99.90;;;;;;5108896;28;20032;-50
2022/07/07 05:35:34;;;;;;;1.17;0.95;;;14.20;99.90;;;;;;5089383;28;20039;-52
2022/07/07 05:38:01;;;;;;;2.08;1.20;;;14.30;99.90;;;;;;5070610;28;20032;-51
2022/07/07 05:40:27;;;;;;;1.88;1.02;;;14.30;99.90;;;;;;5113203;28;20024;-45
2022/07/07 05:42:52;;;;;;;2.88;1.20;;;14.30;99.90;;;;;;5074160;28;20047;-48
2022/07/07 05:45:19;;;;;;;3.22;1.30;;;14.40;99.90;;;;;;5077409;28;20037;-52
2022/07/07 05:47:44;;;;;;;2.97;1.40;;;14.40;99.90;;;;;;5096021;28;20032;-52
2022/07/07 05:50:10;;;;;;;2.88;1.20;;;14.50;99.90;;;;;;5081037;28;20028;-46
2022/07/07 05:52:35;;;;;;;1.65;1.30;;;14.50;99.90;;;;;;5083958;28;20137;-46
2022/07/07 05:55:01;;;;;;;1.60;1.17;;;14.50;99.90;;;;;;5090243;28;20127;-48
2022/07/07 05:57:26;;;;;;;2.45;1.60;;;14.60;99.90;;;;;;5085036;28;20111;-52
2022/07/07 05:59:52;;;;;;;3.08;1.42;;;14.60;99.90;;;;;;5089902;28;20024;-50
2022/07/07 06:02:17;;;;;;;2.47;1.23;;;14.70;99.90;;;;;;5075943;28;20508;-53
2022/07/07 06:04:42;;;;;;;5.03;1.65;;;14.70;99.90;;;;;;5069872;28;20031;-50
2022/07/07 06:07:08;;;;;;;2.65;1.90;;;14.70;99.90;;;;;;5092641;28;20050;-49
2022/07/07 06:09:34;;;;;;;3.25;1.42;;;14.70;99.90;;;;;;5110825;28;20490;-50
2022/07/07 06:11:59;;;;;;;2.30;1.65;;;14.70;99.90;;;;;;5094868;28;20119;-51
2022/07/07 06:14:26;;;;;;;1.88;1.23;;;14.70;99.90;;;;;;5096605;28;20035;-50
2022/07/07 06:16:52;;;;;;;1.75;1.25;;;14.70;99.90;;;;;;5097939;28;20031;-54
2022/07/07 06:19:17;;;;;;;4.30;1.55;;;14.70;99.90;;;;;;5095518;28;20565;-49
2022/07/07 06:21:43;;;;;;;1.42;1.10;;;14.70;99.90;;;;;;5110404;28;20120;-51
2022/07/07 06:24:09;;;;;;;2.17;1.50;;;14.70;99.90;;;;;;5092550;28;20050;-50
2022/07/07 06:26:35;;;;;;;2.15;1.65;;;14.80;99.90;;;;;;5102444;28;20432;-51
2022/07/07 06:29:00;;;;;;;2.33;1.55;;;14.90;99.90;;;;;;5091872;28;20041;-50
2022/07/07 06:31:26;;;;;;;3.40;1.73;;;14.90;99.90;;;;;;5109364;28;20040;-47
2022/07/07 06:33:51;;;;;;;2.58;1.17;;;14.90;99.90;;;;;;5112274;28;20015;-47
2022/07/07 06:36:17;;;;;;;3.00;1.45;;;14.90;99.90;;;;;;5095239;28;20059;-51
2022/07/07 06:38:42;;;;;;;5.65;1.60;;;14.90;99.90;;;;;;5112500;28;20028;-47
2022/07/07 06:41:08;;;;;;;1.63;1.23;;;14.90;99.90;;;;;;5072443;28;20029;-45
2022/07/07 06:43:33;;;;;;;1.73;1.40;;;14.90;99.90;;;;;;5111101;28;20073;-46
2022/07/07 06:45:59;;;;;;;1.95;1.30;;;15.00;99.90;;;;;;5073599;28;20051;-45
2022/07/07 06:48:24;;;;;;;2.58;1.55;;;14.90;99.90;;;;;;5110352;28;20102;-45
2022/07/07 06:50:50;;;;;;;3.80;1.48;;;14.90;99.90;;;;;;5074884;28;20082;-45
2022/07/07 06:53:15;;;;;;;1.63;1.20;;;15.00;99.90;;;;;;5110925;28;20502;-47
2022/07/07 06:55:42;;;;;;;1.80;1.17;;;15.00;99.90;;;;;;5075864;28;20108;-46
2022/07/07 06:58:08;;;;;;;2.03;1.20;;;15.00;99.90;;;;;;5110547;28;20061;-45
2022/07/07 07:00:33;;;;;;;2.30;1.30;;;15.00;99.90;;;;;;5075205;28;20032;-46
2022/07/07 07:02:59;;;;;;;1.52;1.42;;;15.00;99.90;;;;;;5071491;28;20028;-45
2022/07/07 07:05:25;;;;;;;2.97;1.30;;;15.10;99.90;;;;;;5108520;28;20036;-45
2022/07/07 07:07:51;;;;;;;2.47;1.30;;;15.10;99.90;;;;;;5111728;28;20062;-46
2022/07/07 07:10:16;;;;;;;1.85;1.38;;;15.00;99.90;;;;;;5092460;28;20974;-45
2022/07/07 07:12:42;;;;;;;2.38;1.20;;;15.10;99.90;;;;;;5111944;28;20483;-46
2022/07/07 07:15:08;;;;;;;1.67;1.45;;;15.10;99.90;;;;;;5083794;28;20158;-47
2022/07/07 07:17:34;;;;;;;4.78;1.27;;;15.10;99.90;;;;;;5111663;28;20035;-47
2022/07/07 07:19:59;;;;;;;2.40;1.95;;;15.10;99.90;;;;;;5089863;28;20036;-47
2022/07/07 07:22:26;;;;;;;3.90;1.30;;;15.10;99.90;;;;;;5094992;28;20554;-45
2022/07/07 07:24:52;;;;;;;2.40;1.40;;;15.00;99.90;;;;;;5110827;28;20031;-45
2022/07/07 07:27:17;;;;;;;2.45;1.63;;;15.10;99.90;;;;;;5078397;28;20033;-46
2022/07/07 07:29:43;;;;;;;2.22;1.52;;;15.10;99.90;;;;;;5097441;28;20069;-45
2022/07/07 07:32:08;;;;;;;2.92;1.85;;;15.20;99.90;;;;;;5109532;28;20036;-45
2022/07/07 07:34:34;;;;;;;1.40;1.25;;;15.20;99.90;;;;;;5091488;28;20032;-45
2022/07/07 07:37:00;;;;;;;1.50;1.40;;;15.20;99.90;;;;;;5107856;28;20039;-46
2022/07/07 07:39:26;;;;;;;2.58;1.88;;;15.20;99.90;;;;;;5091124;28;20040;-49
2022/07/07 07:41:52;;;;;;;1.92;1.45;;;15.30;99.90;;;;;;5108211;28;20625;-45
2022/07/07 07:45:09;;;;;;;2.75;1.40;;;15.30;99.90;;;;;;5091385;28;20032;-46
2022/07/07 07:47:04;;;;;;;1.63;1.52;;;15.40;99.90;;;;;;5088530;28;20035;-46
2022/07/07 07:49:29;;;;;;;2.50;1.00;;;15.50;99.90;;;;;;5091038;28;20039;-46
2022/07/07 07:51:55;;;;;;;2.17;1.88;;;15.50;99.90;;;;;;5108202;28;20039;-45
2022/07/07 07:54:20;;;;;;;1.23;1.13;;;15.60;99.90;;;;;;5091259;28;20040;-45
2022/07/07 07:56:46;;;;;;;2.72;1.00;;;15.60;99.90;;;;;;5107871;28;20073;-47
2022/07/07 07:59:11;;;;;;;4.05;1.52;;;15.60;99.90;;;;;;5111121;28;20035;-47
2022/07/07 08:01:37;;;;;;;5.38;3.38;;;15.70;99.90;;;;;;5094341;28;20031;-49
2022/07/07 08:04:03;;;;;;;5.85;1.80;;;15.70;99.90;;;;;;5095505;28;20039;-46
2022/07/07 08:06:28;;;;;;;2.60;1.52;;;15.80;99.90;;;;;;5093550;28;20024;-45
2022/07/07 08:08:53;;;;;;;2.33;1.63;;;15.80;99.90;;;;;;5110883;28;20070;-48
2022/07/07 08:11:19;;;;;;;2.97;1.60;;;15.80;99.90;;;;;;5092380;28;20031;-45
2022/07/07 08:13:44;;;;;;;1.88;1.10;;;15.70;99.90;;;;;;5096673;28;20104;-45
2022/07/07 08:16:10;;;;;;;1.33;0.95;;;15.70;99.90;;;;;;5090890;28;20044;-46
2022/07/07 08:18:35;;;;;;;1.60;1.13;;;15.70;99.90;;;;;;5110906;28;20096;-46
2022/07/07 08:21:01;;;;;;;2.00;1.20;;;15.70;99.90;;;;;;5090274;28;20032;-45
2022/07/07 08:23:26;;;;;;;0.60;0.60;;;15.80;99.90;;;;;;5110820;28;20475;-47
2022/07/07 08:25:52;;;;;;;1.20;1.10;;;15.80;99.90;;;;;;5089412;28;20036;-47
2022/07/07 08:28:18;;;;;;;1.20;1.10;;;15.90;99.90;;;;;;5107504;28;20039;-47
2022/07/07 08:30:44;;;;;;;1.25;1.15;;;15.90;99.90;;;;;;5109818;28;20051;-45
2022/07/07 08:33:09;;;;;;;1.30;1.20;;;16.00;99.90;;;;;;5069410;28;20488;-46
2022/07/07 08:35:35;;;;;;;1.30;1.20;;;16.10;99.90;;;;;;5109152;28;20044;-47
2022/07/07 08:38:00;;;;;;;1.98;1.35;;;16.10;99.90;;;;;;5070327;28;20522;-45
2022/07/07 08:40:26;;;;;;;1.13;1.00;;;16.20;99.90;;;;;;5082505;28;20116;-45
2022/07/07 08:42:52;;;;;;;0.80;0.80;;;16.20;99.90;;;;;;5080608;28;20024;-46
2022/07/07 08:45:17;;;;;;;1.08;1.00;;;16.20;99.90;;;;;;5109026;28;20055;-46
2022/07/07 08:47:44;;;;;;;2.88;1.25;;;16.20;99.90;;;;;;5079654;28;20492;-46
2022/07/07 08:50:09;;;;;;;1.58;1.45;;;16.30;99.90;;;;;;5089984;28;20031;-45
2022/07/07 08:52:35;;;;;;;3.88;1.70;;;16.30;99.90;;;;;;5107149;28;20061;-46
2022/07/07 08:55:04;;;;;;;2.03;1.27;;;16.30;99.90;;;;;;5110066;28;20035;-45
2022/07/07 08:57:29;;;;;;;2.20;1.83;;;16.40;99.90;;;;;;5093484;28;20473;-47
2022/07/07 08:59:56;;;;;;;3.10;1.80;;;16.30;99.90;;;;;;5110133;28;20099;-47
2022/07/07 09:02:23;;;;;;;4.10;1.30;;;16.40;99.90;;;;;;5092396;28;20384;-48
2022/07/07 09:04:51;;;;;;;2.83;1.27;;;16.40;99.90;;;;;;5110006;28;20042;-45
2022/07/07 09:07:17;;;;;;;1.42;1.33;;;16.40;99.90;;;;;;5091204;28;20043;-48
2022/07/07 09:09:45;;;;;;;3.30;1.40;;;16.50;99.90;;;;;;5109926;28;20032;-45
2022/07/07 09:12:13;;;;;;;1.55;1.45;;;16.50;99.90;;;;;;5090329;28;20499;-45
2022/07/07 09:14:42;;;;;;;1.50;1.30;;;16.60;99.90;;;;;;5088451;28;20097;-48
2022/07/07 09:17:17;;;;;;;3.53;1.65;;;16.60;99.90;;;;;;5106770;28;20119;-45
2022/07/07 09:19:44;;;;;;;1.88;1.50;;;16.70;99.90;;;;;;5109879;28;20042;-45
2022/07/07 09:22:11;;;;;;;1.50;1.40;;;16.80;99.90;;;;;;5090523;28;20048;-45
2022/07/07 09:24:52;;;;;;;2.47;1.20;;;16.80;99.90;;;;;;5109911;28;20020;-46
2022/07/07 09:27:18;;;;;;;1.10;1.08;;;17.00;99.90;;;;;;5094095;28;20115;-46
2022/07/07 09:29:43;;;;;;;1.85;1.10;;;17.20;99.90;;;;;;5089119;28;20114;-46
2022/07/07 09:32:09;;;;;;;1.77;1.10;;;17.40;99.90;;;;;;5069153;28;20387;-46
2022/07/07 09:34:36;;;;;;;4.35;1.17;;;17.50;99.90;;;;;;5106231;28;20035;-45
2022/07/07 09:39:50;;;;;;;1.30;1.20;;;17.70;99.90;;;;;;5081465;28;20055;-45
2022/07/07 09:42:21;;;;;;;3.30;1.08;;;17.70;99.90;;;;;;5109561;28;20103;-45
2022/07/07 09:44:53;;;;;;;1.10;1.00;;;17.70;99.90;;;;;;5075454;28;20029;-44
2022/07/07 09:47:20;;;;;;;0.93;0.93;;;17.70;99.90;;;;;;5068854;28;20032;-45
2022/07/07 09:50:15;;;;;;;1.10;1.00;;;17.60;99.90;;;;;;5080918;28;20025;-47
2022/07/07 09:52:45;;;;;;;1.15;0.90;;;17.60;99.90;;;;;;5068674;28;20074;-45
2022/07/07 09:55:11;;;;;;;1.10;1.00;;;17.60;99.90;;;;;;5075796;28;20439;-46
2022/07/07 09:57:39;;;;;;;1.48;1.20;;;17.60;99.90;;;;;;5107795;28;20031;-45
2022/07/07 10:00:06;;;;;;;2.28;1.27;;;17.50;99.90;;;;;;5072559;28;20063;-44
2022/07/07 10:02:31;;;;;;;1.23;1.15;;;17.50;99.90;;;;;;5073958;28;20029;-45
2022/07/07 10:04:59;;;;;;;1.40;1.27;;;17.50;99.90;;;;;;5088543;28;20032;-44
2022/07/07 10:07:26;;;;;;;1.00;1.00;;;17.60;99.90;;;;;;5088300;28;20433;-46
2022/07/07 10:09:54;;;;;;;1.25;1.15;;;17.60;99.90;;;;;;5066665;28;20044;-45
2022/07/07 10:12:22;;;;;;;1.30;1.20;;;17.70;99.90;;;;;;5107171;28;20031;-44
2022/07/07 10:14:49;;;;;;;1.50;1.15;;;17.70;99.90;;;;;;5060300;28;20032;-45
2022/07/07 10:17:16;;;;;;;1.75;1.15;;;17.70;99.90;;;;;;5107515;28;20395;-44
2022/07/07 10:19:42;;;;;;;1.40;1.30;;;17.80;99.90;;;;;;5068741;28;20028;-45
2022/07/07 10:22:08;;;;;;;1.30;1.20;;;17.80;99.90;;;;;;5107112;28;20507;-45
2022/07/07 10:24:35;;;;;;;1.65;1.55;;;17.90;99.90;;;;;;5072575;28;20090;-44
2022/07/07 10:27:03;;;;;;;1.50;1.40;;;18.00;99.90;;;;;;5099914;28;20031;-45
2022/07/07 10:29:43;;;;;;;1.20;1.08;;;17.90;99.90;;;;;;5089836;28;20034;-45
2022/07/07 10:32:14;;;;;;;2.42;1.38;;;18.00;99.90;;;;;;5091899;28;20024;-45
2022/07/07 10:34:52;;;;;;;1.35;1.25;;;18.00;99.90;;;;;;5069570;28;20033;-45
2022/07/07 10:37:19;;;;;;;2.42;1.20;;;18.10;99.90;;;;;;5071525;28;20377;-47
2022/07/07 10:39:47;;;;;;;1.27;1.17;;;18.20;99.90;;;;;;5072153;28;20029;-46
2022/07/07 10:42:16;;;;;;;2.58;1.38;;;18.20;99.90;;;;;;5110055;28;20047;-46
2022/07/07 10:44:53;;;;;;;1.10;1.00;;;18.20;99.90;;;;;;5071992;28;20021;-48
2022/07/07 10:47:21;;;;;;;1.23;1.13;;;18.20;99.90;;;;;;5111252;28;20024;-49
2022/07/07 10:49:57;;;;;;;2.00;1.35;;;18.30;99.90;;;;;;5071573;28;20024;-50
2022/07/07 10:52:27;;;;;;;1.98;1.50;;;18.20;99.90;;;;;;5071059;28;20036;-49
2022/07/07 10:55:02;;;;;;;2.97;1.90;;;18.30;99.90;;;;;;5070212;28;20040;-49
2022/07/07 10:57:42;;;;;;;3.30;1.73;;;18.40;99.70;;;;;;5111091;28;20027;-49
2022/07/07 11:00:12;;;;;;;2.50;1.73;;;18.40;98.30;;;;;;5070771;28;20104;-45
2022/07/07 11:02:47;;;;;;;3.63;1.80;;;18.40;98.70;;;;;;5109280;28;20032;-50
2022/07/07 11:05:15;;;;;;;4.28;1.58;;;18.50;98.60;;;;;;5111470;28;20076;-49
2022/07/07 11:08:03;;;;;;;2.35;1.83;;;18.50;98.60;;;;;;5090473;28;20032;-46
2022/07/07 11:10:51;;;;;;;1.63;1.33;;;18.60;97.60;;;;;;5085623;28;20131;-57
2022/07/07 11:13:21;;;;;;;1.52;1.42;;;18.50;98.30;;;;;;5077269;28;20065;-57
2022/07/07 11:16:07;;;;;;;1.48;1.38;;;18.50;98.10;;;;;;5111203;27;20026;-59
2022/07/07 11:18:34;;;;;;;1.38;1.27;;;18.50;98.30;;;;;;5081131;28;20077;-59
2022/07/07 11:21:02;;;;;;;1.20;1.10;;;18.40;98.40;;;;;;5091154;28;20035;-59
2022/07/07 11:23:47;;;;;;;2.85;1.35;;;18.40;98.20;;;;;;5108583;28;20483;-59
2022/07/07 11:26:14;;;;;;;2.53;1.30;;;18.30;98.80;;;;;;5106744;28;20055;-58
2022/07/07 11:28:40;;;;;;;1.20;1.13;;;18.20;99.20;;;;;;5101977;28;20092;-59
2022/07/07 11:31:08;;;;;;;1.60;1.42;;;18.20;99.60;;;;;;5109996;28;20043;-59
2022/07/07 11:33:35;;;;;;;1.98;1.63;;;18.20;99.90;;;;;;5097436;28;20028;-59
2022/07/07 11:36:33;;;;;;;1.50;1.05;;;18.20;99.90;;;;;;5089497;28;20020;-59
2022/07/07 11:39:02;;;;;;;1.50;1.40;;;18.10;99.90;;;;;;5044767;28;20055;-60
2022/07/07 11:41:44;;;;;;;1.90;1.35;;;18.10;99.90;;;;;;5110422;28;20027;-59
2022/07/07 11:44:22;;;;;;;2.00;1.80;;;18.10;99.90;;;;;;5068642;28;20086;-59
2022/07/07 11:46:49;;;;;;;2.28;1.23;;;18.00;99.90;;;;;;5110556;28;20034;-60
2022/07/07 11:49:16;;;;;;;3.88;1.40;;;18.10;99.90;;;;;;5074385;28;20024;-59
2022/07/07 11:51:44;;;;;;;4.18;1.67;;;18.20;99.90;;;;;;5109541;28;20031;-58
2022/07/07 11:54:09;;;;;;;4.35;2.92;;;18.20;99.90;;;;;;5075203;28;20352;-59
2022/07/07 11:56:36;;;;;;;3.55;2.95;;;18.30;99.90;;;;;;5109421;28;20118;-59
2022/07/07 11:59:03;;;;;;;1.95;1.85;;;18.40;99.90;;;;;;5075828;28;20033;-59
2022/07/07 12:01:33;;;;;;;2.63;1.80;;;18.40;99.90;;;;;;5109112;28;20490;-59
2022/07/07 12:04:02;;;;;;;3.05;2.13;;;18.50;99.90;;;;;;5076368;28;20119;-60
2022/07/07 12:06:28;;;;;;;2.60;2.40;;;18.50;99.90;;;;;;5110069;28;20049;-59
2022/07/07 12:08:55;;;;;;;2.58;2.00;;;18.60;99.90;;;;;;5076853;28;20481;-59
2022/07/07 12:11:20;;;;;;;2.50;2.30;;;18.60;99.90;;;;;;5109343;28;20031;-59
2022/07/07 12:13:46;;;;;;;1.73;1.40;;;18.60;99.90;;;;;;5091187;28;20437;-59
2022/07/07 12:16:12;;;;;;;2.35;1.73;;;18.70;99.90;;;;;;5090449;28;20032;-59
2022/07/07 12:18:40;;;;;;;1.95;1.65;;;18.80;99.90;;;;;;5107012;28;20402;-60
2022/07/07 12:21:08;;;;;;;1.92;1.77;;;18.80;99.90;;;;;;5089948;28;20024;-59
2022/07/07 12:23:41;;;;;;;1.40;1.30;;;18.90;99.90;;;;;;5107643;28;20489;-59
2022/07/07 12:26:10;;;;;;;2.30;1.90;;;18.90;99.90;;;;;;5076276;28;20023;-59
2022/07/07 12:28:36;;;;;;;1.83;1.73;;;18.80;99.90;;;;;;5090747;28;20032;-59
2022/07/07 12:31:04;;;;;;;1.80;1.70;;;18.80;99.90;;;;;;5109216;28;20388;-59
2022/07/07 12:33:36;;;;;;;2.65;2.05;;;18.80;99.90;;;;;;5095536;28;20035;-60
2022/07/07 12:36:15;;;;;;;2.00;1.90;;;18.80;99.90;;;;;;5089573;28;20031;-58
2022/07/07 12:38:45;;;;;;;3.60;2.30;;;18.80;99.90;;;;;;5106821;28;20398;-58
2022/07/07 12:41:27;;;;;;;1.88;1.75;;;19.00;99.90;;;;;;5089050;28;20027;-59
2022/07/07 12:43:55;;;;;;;2.88;2.22;;;19.30;99.90;;;;;;5106891;28;20076;-59
2022/07/07 12:46:30;;;;;;;2.25;2.05;;;19.40;99.90;;;;;;5089171;28;20031;-59
2022/07/07 12:48:58;;;;;;;2.92;2.72;;;19.50;99.60;;;;;;5090310;28;20509;-60
2022/07/07 12:51:25;;;;;;;2.65;2.45;;;19.50;99.60;;;;;;5089424;28;20504;-60